Plymouth, Washington
Current Conditions -  °F | °C
As of 5:53 AM on Monday 20 Oct 2014 (Local Time) from KHRI Reporting Station
Clear Clear  
Wind Chill: 40°   Ceiling: Unl
Heat Index: 43°   Visibility: 10mi
Dew Point: 40°   Wind: 5mph
Humidity: 89%   Direction: 190°S
Pressure: 29.73"   Gusts: NA
Location:  45.93°N, 119.35°W
Report Text: KHRI 201253Z AUTO 19004KT 10SM CLR 06/04 A2973 RMK AO2 SLP065 T00610044
Loading
Personal Weather Stations






























Interactive Weather Map
Tropical Storm Tracking
New forecast layout! Learn more

10-Day Weather Forecast

Advertisements
Track Severe Weather on mobile